Time;durP1;ratioP1;P1;durP2;ratioP2;P2;SDS_P1;SDS_P2;PMS_P1;PMS_P2;Temp;Humidity;BMP_temperature;BMP_pressure;BME280_temperature;BME280_humidity;BME280_pressure;Samples;Min_cycle;Max_cycle;Signal;HPM_P1;HPM_P2
2022/12/16 00:00:39;;;;;;;15.07;7.33;;;;;;;4.00;nan;-23928.22;5037190;28;20192;-76
2022/12/16 00:03:06;;;;;;;18.50;7.67;;;;;;;4.11;nan;-23931.06;5037771;28;20233;-76
2022/12/16 00:05:31;;;;;;;14.87;6.03;;;;;;;4.10;nan;-23930.78;5043195;28;20222;-76
2022/12/16 00:07:57;;;;;;;14.07;6.30;;;;;;;4.14;nan;-23932.06;5036243;28;20289;-77
2022/12/16 00:10:22;;;;;;;12.13;6.80;;;;;;;4.03;nan;-23928.94;5038487;28;20568;-77
2022/12/16 00:12:48;;;;;;;13.73;6.43;;;;;;;3.95;nan;-23926.81;5035490;28;20214;-77
2022/12/16 00:15:13;;;;;;;15.30;8.17;;;;;;;4.04;nan;-23929.22;5033458;28;20180;-77
2022/12/16 00:17:38;;;;;;;10.30;5.77;;;;;;;3.93;nan;-23926.09;5038124;28;20191;-76
2022/12/16 00:20:05;;;;;;;13.83;7.00;;;;;;;3.93;nan;-23926.09;5037975;28;20183;-77
2022/12/16 00:22:30;;;;;;;17.17;8.33;;;;;;;4.12;nan;-23931.50;5040887;28;20190;-76
2022/12/16 00:24:55;;;;;;;12.40;6.83;;;;;;;3.92;nan;-23925.81;5039755;28;20598;-77
2022/12/16 00:27:21;;;;;;;10.47;6.50;;;;;;;3.80;nan;-23922.38;5030803;28;20297;-78
2022/12/16 00:29:46;;;;;;;16.00;6.17;;;;;;;3.91;nan;-23925.53;5032568;28;20184;-76
2022/12/16 00:32:12;;;;;;;12.43;7.57;;;;;;;3.90;nan;-23925.22;5037755;28;20302;-78
2022/12/16 00:34:37;;;;;;;15.47;7.30;;;;;;;3.99;nan;-23927.81;5034616;28;20187;-77
2022/12/16 00:37:03;;;;;;;13.93;7.37;;;;;;;3.52;nan;-23914.69;5040426;28;20266;-76
2022/12/16 00:39:28;;;;;;;14.20;8.23;;;;;;;3.52;nan;-23914.69;5039214;28;20209;-76
2022/12/16 00:41:54;;;;;;;11.67;7.40;;;;;;;3.73;nan;-23920.53;5037169;28;20184;-77
2022/12/16 00:44:19;;;;;;;14.23;7.97;;;;;;;3.89;nan;-23924.94;5036886;28;20198;-76
2022/12/16 00:46:44;;;;;;;10.70;7.17;;;;;;;3.97;nan;-23927.22;5037801;28;20661;-77
2022/12/16 00:49:10;;;;;;;13.60;6.90;;;;;;;3.70;nan;-23919.69;5030990;28;20334;-77
2022/12/16 00:51:35;;;;;;;14.13;7.90;;;;;;;3.67;nan;-23918.69;5032774;28;20198;-76
2022/12/16 00:54:01;;;;;;;11.67;7.03;;;;;;;3.54;nan;-23915.25;5034478;28;20214;-76
2022/12/16 00:56:26;;;;;;;16.60;8.13;;;;;;;3.65;nan;-23918.13;5034802;28;20206;-77
2022/12/16 00:58:52;;;;;;;9.57;5.73;;;;;;;3.43;nan;-23912.13;5039022;28;20190;-76
2022/12/16 01:01:18;;;;;;;11.50;6.93;;;;;;;3.42;nan;-23911.84;5038851;28;20195;-76
2022/12/16 01:03:43;;;;;;;15.73;6.23;;;;;;;3.48;nan;-23913.56;5040444;28;20267;-76
2022/12/16 01:06:15;;;;;;;14.17;6.63;;;;;;;3.54;nan;-23915.25;5035514;28;20272;-76
2022/12/16 01:08:47;;;;;;;15.90;7.13;;;;;;;3.52;nan;-23914.69;5030672;28;20183;-77
2022/12/16 01:11:15;;;;;;;14.77;7.47;;;;;;;3.53;nan;-23914.97;5038566;28;20171;-79
2022/12/16 01:13:41;;;;;;;15.73;6.23;;;;;;;3.48;nan;-23913.56;5038983;28;20285;-77
2022/12/16 01:16:06;;;;;;;11.97;6.67;;;;;;;3.63;nan;-23917.69;5037992;28;20321;-76
2022/12/16 01:18:32;;;;;;;17.27;7.87;;;;;;;3.60;nan;-23916.69;5031888;28;20274;-77
2022/12/16 01:21:05;;;;;;;13.07;6.90;;;;;;;3.70;nan;-23919.69;5033863;28;20187;-77
2022/12/16 01:23:32;;;;;;;12.73;8.70;;;;;;;3.32;nan;-23909.00;5034880;28;20187;-76
2022/12/16 01:25:58;;;;;;;17.60;7.80;;;;;;;3.10;nan;-23902.84;5037769;28;20216;-77
2022/12/16 01:28:24;;;;;;;15.90;8.73;;;;;;;3.29;nan;-23908.00;5037674;28;20178;-76
2022/12/16 01:31:00;;;;;;;13.67;7.70;;;;;;;3.52;nan;-23914.69;5037128;28;20561;-77
2022/12/16 01:33:31;;;;;;;14.43;8.07;;;;;;;3.35;nan;-23909.84;5034964;28;20203;-76
2022/12/16 01:36:15;;;;;;;14.83;7.40;;;;;;;3.40;nan;-23911.28;5033175;28;20716;-77
2022/12/16 01:38:43;;;;;;;13.57;6.73;;;;;;;3.43;nan;-23911.97;5036629;28;20190;-77
2022/12/16 01:41:10;;;;;;;23.33;7.50;;;;;;;3.33;nan;-23909.13;5033116;28;20171;-77
2022/12/16 01:43:37;;;;;;;15.77;7.30;;;;;;;3.02;nan;-23900.44;5038668;28;20202;-78
2022/12/16 01:46:18;;;;;;;11.47;6.87;;;;;;;3.30;nan;-23908.28;5035816;28;20242;-79
2022/12/16 01:49:09;;;;;;;14.93;6.60;;;;;;;3.22;nan;-23906.00;5028189;28;20658;-78
2022/12/16 01:51:38;;;;;;;10.90;6.50;;;;;;;3.33;nan;-23909.28;5047828;28;20225;-77
2022/12/16 01:54:09;;;;;;;9.33;6.10;;;;;;;3.09;nan;-23902.44;5038066;28;20281;-76
2022/12/16 01:56:42;;;;;;;9.13;5.70;;;;;;;3.03;nan;-23900.88;5030980;28;20236;-76
2022/12/16 01:59:09;;;;;;;13.63;6.93;;;;;;;2.63;nan;-23889.59;5031039;28;20640;-76
2022/12/16 02:01:35;;;;;;;15.73;7.83;;;;;;;3.26;nan;-23907.28;5036265;28;20272;-76
2022/12/16 02:04:02;;;;;;;14.83;7.70;;;;;;;3.27;nan;-23907.41;5038596;28;20598;-76
2022/12/16 02:06:30;;;;;;;13.07;6.80;;;;;;;3.15;nan;-23904.13;5035646;28;20681;-77
2022/12/16 02:08:59;;;;;;;13.63;6.20;;;;;;;3.19;nan;-23905.28;5041208;28;20552;-76
2022/12/16 02:11:41;;;;;;;14.97;6.53;;;;;;;3.24;nan;-23906.56;5036056;28;20552;-76
2022/12/16 02:14:33;;;;;;;15.00;7.37;;;;;;;3.35;nan;-23909.84;5036073;28;20356;-76
2022/12/16 02:17:05;;;;;;;10.80;5.90;;;;;;;3.41;nan;-23911.56;5020764;28;20190;-76
2022/12/16 02:19:49;;;;;;;11.97;7.73;;;;;;;3.39;nan;-23910.97;5037738;28;20185;-76
2022/12/16 02:22:26;;;;;;;21.10;8.93;;;;;;;3.61;nan;-23916.97;5037069;28;20187;-77
2022/12/16 02:25:22;;;;;;;11.13;6.23;;;;;;;3.47;nan;-23913.25;5034438;28;20289;-76
2022/12/16 02:27:48;;;;;;;11.90;7.13;;;;;;;3.55;nan;-23915.53;5035374;28;20593;-76
2022/12/16 02:30:26;;;;;;;15.03;7.23;;;;;;;3.64;nan;-23917.97;5033997;28;20803;-77
2022/12/16 02:33:15;;;;;;;14.83;8.03;;;;;;;3.61;nan;-23917.13;5033663;28;20261;-76
2022/12/16 02:35:43;;;;;;;12.40;6.73;;;;;;;3.68;nan;-23918.97;5035204;28;20257;-77
2022/12/16 02:39:06;;;;;;;14.87;6.73;;;;;;;3.62;nan;-23917.41;5034858;28;20182;-77
2022/12/16 02:41:51;;;;;;;14.50;6.57;;;;;;;3.67;nan;-23918.69;5013222;28;20698;-78
2022/12/16 02:44:18;;;;;;;19.93;7.07;;;;;;;3.31;nan;-23908.72;4992498;28;20195;-76
2022/12/16 02:46:54;;;;;;;13.40;8.03;;;;;;;3.37;nan;-23910.28;5016718;28;20191;-76
2022/12/16 02:49:20;;;;;;;14.17;6.47;;;;;;;3.51;nan;-23914.25;5033998;28;20214;-78
2022/12/16 02:51:46;;;;;;;10.53;6.67;;;;;;;3.45;nan;-23912.56;5035198;28;20167;-77
2022/12/16 02:54:13;;;;;;;9.13;5.40;;;;;;;2.90;nan;-23897.00;5035191;28;20170;-76
2022/12/16 02:56:57;;;;;;;14.57;7.07;;;;;;;3.36;nan;-23910.00;5033107;28;20316;-79
2022/12/16 02:59:40;;;;;;;10.60;5.30;;;;;;;3.34;nan;-23909.41;5033504;28;20175;-77
2022/12/16 03:02:35;;;;;;;13.37;6.83;;;;;;;3.33;nan;-23909.28;5033328;28;20218;-76
2022/12/16 03:05:21;;;;;;;13.70;7.93;;;;;;;3.34;nan;-23909.56;5033552;28;20648;-76
2022/12/16 03:07:48;;;;;;;15.67;7.90;;;;;;;3.43;nan;-23912.13;5033287;28;20175;-78
2022/12/16 03:13:52;;;;;;;13.70;7.13;;;;;;;3.43;nan;-23912.13;5032656;28;20210;-76
2022/12/16 03:16:21;;;;;;;13.00;6.93;;;;;;;3.16;nan;-23904.44;5032502;28;20171;-77
2022/12/16 03:18:53;;;;;;;31.17;8.30;;;;;;;3.50;nan;-23913.97;5033563;28;20171;-76
2022/12/16 03:21:21;;;;;;;13.50;6.80;;;;;;;3.56;nan;-23915.69;5035350;28;20257;-76
2022/12/16 03:23:52;;;;;;;11.10;7.20;;;;;;;3.55;nan;-23915.41;5032780;28;20221;-78
2022/12/16 03:26:25;;;;;;;14.20;7.83;;;;;;;3.48;nan;-23913.56;5032763;28;20187;-76
2022/12/16 03:29:15;;;;;;;16.63;9.30;;;;;;;3.53;nan;-23914.97;5032731;28;20274;-76
2022/12/16 03:31:47;;;;;;;13.67;7.10;;;;;;;3.54;nan;-23915.25;5033368;28;20190;-77
2022/12/16 03:34:34;;;;;;;12.73;6.73;;;;;;;3.67;nan;-23918.69;5033966;28;20581;-77
2022/12/16 03:37:04;;;;;;;11.80;7.53;;;;;;;3.53;nan;-23914.97;5032753;28;20183;-77
2022/12/16 03:39:34;;;;;;;12.30;8.00;;;;;;;3.53;nan;-23914.97;5032570;28;20253;-77
2022/12/16 03:42:01;;;;;;;11.17;7.47;;;;;;;3.63;nan;-23917.53;5033040;28;20307;-76
2022/12/16 03:44:27;;;;;;;13.17;7.60;;;;;;;3.70;nan;-23919.53;5032575;28;20183;-77
2022/12/16 03:46:52;;;;;;;15.53;7.97;;;;;;;3.80;nan;-23922.38;5034006;28;20191;-76
2022/12/16 03:49:18;;;;;;;11.37;6.77;;;;;;;3.71;nan;-23919.81;5033661;28;20738;-76
2022/12/16 03:51:43;;;;;;;9.97;7.50;;;;;;;3.62;nan;-23917.41;5033492;28;20612;-77
2022/12/16 03:54:09;;;;;;;13.33;7.30;;;;;;;3.85;nan;-23923.81;5039053;28;20674;-76
2022/12/16 03:56:34;;;;;;;16.40;6.33;;;;;;;3.74;nan;-23920.69;5033037;28;20179;-77
2022/12/16 03:59:00;;;;;;;9.43;6.70;;;;;;;3.51;nan;-23914.41;5041206;28;20186;-77
2022/12/16 04:01:25;;;;;;;12.23;5.83;;;;;;;3.81;nan;-23922.66;5032158;28;20199;-77
2022/12/16 04:03:51;;;;;;;13.33;7.03;;;;;;;3.92;nan;-23925.94;5040075;28;20262;-78
2022/12/16 04:06:17;;;;;;;11.80;7.10;;;;;;;3.34;nan;-23909.56;5038346;28;20195;-76
2022/12/16 04:08:47;;;;;;;7.70;5.90;;;;;;;4.03;nan;-23928.94;5035618;28;20263;-76
2022/12/16 04:25:14;;;;;;;15.43;7.23;;;;;;;4.18;nan;-23933.06;5035016;28;20960;-78
2022/12/16 04:27:45;;;;;;;15.53;6.37;;;;;;;4.43;nan;-23940.34;5034227;28;20176;-76
2022/12/16 04:30:19;;;;;;;13.03;7.10;;;;;;;4.43;nan;-23940.34;5033568;28;20260;-76
